Terminal Aerodrome Forecast
Issued by NWS Mt. Holly, NJ

Home | Current Version | Previous Version | Text Only | Print | Product List | Glossary On
Versions: 1 2 3 4 5 6 7 8 9 10 11 12 13 14 15 16 17
813
FTUS41 KPHI 091120
TAFILG
TAF
KILG 091120Z 0912/1012 08006KT P6SM OVC008
      TEMPO 0912/0916 4SM -SNRA
     FM091800 01010KT 1SM -SN OVC007
     FM092100 05008KT 5SM BR OVC010
     FM100600 30005KT P6SM SCT020 BKN070=

USA.gov is the U.S. government's official web portal to all federal, state and local government web resources and services.